createdAt,value
2019-01-30T00:00:09.346Z,98.80
2019-01-30T00:02:40.116Z,98.70
2019-01-30T00:05:10.978Z,98.80
2019-01-30T00:07:42.068Z,99.00
2019-01-30T00:10:13.271Z,98.60
2019-01-30T00:12:44.023Z,98.70
2019-01-30T00:15:15.122Z,98.90
2019-01-30T00:17:46.162Z,98.90
2019-01-30T00:20:16.966Z,98.90
2019-01-30T00:22:47.784Z,99.00
2019-01-30T00:25:18.706Z,99.00
2019-01-30T00:27:49.507Z,98.90
2019-01-30T00:30:20.721Z,98.90
2019-01-30T00:32:51.618Z,98.90
2019-01-30T00:35:22.454Z,99.10
2019-01-30T00:37:53.245Z,99.20
2019-01-30T00:40:24.257Z,99.00
2019-01-30T00:42:55.192Z,99.10
2019-01-30T00:45:26.442Z,99.10
2019-01-30T00:47:58.335Z,99.00
2019-01-30T00:50:29.396Z,98.90
2019-01-30T00:53:00.739Z,98.90
2019-01-30T00:55:31.764Z,98.80
2019-01-30T00:58:03.094Z,98.80
2019-01-30T01:00:34.003Z,98.90
2019-01-30T01:03:05.219Z,99.10
2019-01-30T01:05:36.369Z,98.70
2019-01-30T01:08:07.327Z,98.70
2019-01-30T01:10:38.489Z,98.60
2019-01-30T01:13:09.775Z,98.90
2019-01-30T01:15:40.594Z,98.70
2019-01-30T01:18:11.380Z,98.50
2019-01-30T01:20:42.123Z,98.80
2019-01-30T01:23:12.908Z,98.70
2019-01-30T01:25:43.728Z,98.80
2019-01-30T01:28:14.456Z,98.90
2019-01-30T01:30:45.201Z,98.60
2019-01-30T01:33:16.249Z,98.60
2019-01-30T01:35:47.155Z,98.50
2019-01-30T01:38:17.891Z,98.40
2019-01-30T01:40:48.879Z,98.40
2019-01-30T01:43:19.674Z,98.30
2019-01-30T01:45:50.811Z,98.60
2019-01-30T01:48:21.600Z,98.90
2019-01-30T01:50:52.657Z,98.60
2019-01-30T01:53:23.645Z,98.60
2019-01-30T01:55:54.871Z,98.60
2019-01-30T01:58:25.574Z,98.70
2019-01-30T02:00:56.791Z,98.60
2019-01-30T02:03:27.502Z,98.50
2019-01-30T02:05:58.246Z,98.80
2019-01-30T02:08:29.038Z,99.00
2019-01-30T02:10:59.775Z,98.60
2019-01-30T02:13:30.882Z,98.20
2019-01-30T02:16:01.672Z,98.60
2019-01-30T02:18:32.431Z,98.80
2019-01-30T02:21:03.609Z,98.50
2019-01-30T02:23:34.330Z,98.20
2019-01-30T02:26:05.289Z,98.50
2019-01-30T02:28:36.071Z,98.20
2019-01-30T02:31:06.980Z,98.40
2019-01-30T02:33:38.168Z,98.20
2019-01-30T02:36:09.537Z,98.10
2019-01-30T02:38:40.341Z,98.00
2019-01-30T02:41:11.524Z,98.30
2019-01-30T02:43:42.255Z,98.20
2019-01-30T02:46:13.605Z,98.00
2019-01-30T02:48:44.779Z,98.10
2019-01-30T02:51:16.200Z,98.30
2019-01-30T02:53:46.912Z,98.40
2019-01-30T02:56:17.642Z,98.10
2019-01-30T02:58:48.975Z,98.20
2019-01-30T03:01:19.702Z,97.90
2019-01-30T03:03:50.417Z,98.20
2019-01-30T03:06:21.384Z,98.10
2019-01-30T03:08:52.114Z,98.60
2019-01-30T03:11:23.215Z,98.40
2019-01-30T03:13:55.135Z,98.70
2019-01-30T03:16:26.049Z,98.50
2019-01-30T03:18:57.067Z,98.70
2019-01-30T03:21:27.817Z,98.50
2019-01-30T03:23:59.180Z,98.70
2019-01-30T03:26:30.426Z,98.40
2019-01-30T03:29:01.233Z,98.80
2019-01-30T03:31:31.945Z,98.50
2019-01-30T03:34:02.919Z,98.60
2019-01-30T03:36:34.059Z,98.60
2019-01-30T03:39:07.696Z,98.50
2019-01-30T03:41:38.518Z,98.30
2019-01-30T03:44:09.392Z,98.30
2019-01-30T03:46:40.135Z,98.50
2019-01-30T03:49:12.038Z,98.50
2019-01-30T03:51:43.090Z,98.40
2019-01-30T03:54:13.802Z,98.40
2019-01-30T03:56:44.907Z,98.40
2019-01-30T03:59:15.627Z,98.20
2019-01-30T04:01:46.773Z,98.20
2019-01-30T04:04:17.930Z,98.10
2019-01-30T04:06:49.056Z,97.90
2019-01-30T04:09:20.106Z,98.20
2019-01-30T04:11:50.871Z,98.40
2019-01-30T04:14:21.938Z,97.70
2019-01-30T04:16:52.672Z,97.90
2019-01-30T04:19:24.394Z,97.80
2019-01-30T04:21:55.508Z,97.50
2019-01-30T04:24:26.272Z,97.60
2019-01-30T04:26:57.092Z,97.50
2019-01-30T04:29:27.800Z,97.50
2019-01-30T04:31:58.531Z,97.60
2019-01-30T04:34:29.584Z,97.40
2019-01-30T04:37:00.635Z,97.60
2019-01-30T04:39:31.655Z,97.50
2019-01-30T04:42:02.758Z,97.60
2019-01-30T04:44:33.801Z,97.70
2019-01-30T04:47:04.773Z,97.60
2019-01-30T04:49:35.817Z,97.50
2019-01-30T04:52:06.725Z,97.30
2019-01-30T04:54:37.803Z,97.20
2019-01-30T04:57:08.630Z,97.20
2019-01-30T04:59:39.327Z,97.10
2019-01-30T05:02:10.151Z,97.20
2019-01-30T05:04:40.876Z,97.50
2019-01-30T05:07:12.034Z,97.40
2019-01-30T05:09:43.099Z,97.80
2019-01-30T05:12:13.987Z,97.40
2019-01-30T05:14:44.695Z,97.30
2019-01-30T05:17:16.036Z,97.20
2019-01-30T05:19:47.042Z,97.00
2019-01-30T05:22:17.856Z,97.00
2019-01-30T05:24:48.589Z,97.00
2019-01-30T05:27:19.331Z,97.20
2019-01-30T05:29:50.313Z,97.30
2019-01-30T05:32:21.055Z,96.90
2019-01-30T05:34:52.003Z,97.00
2019-01-30T05:37:22.904Z,96.50
2019-01-30T05:39:53.684Z,96.70
2019-01-30T05:42:25.937Z,96.70
2019-01-30T05:44:56.954Z,96.90
2019-01-30T05:47:27.690Z,96.90
2019-01-30T05:49:58.520Z,96.80
2019-01-30T05:52:29.430Z,97.10
2019-01-30T05:55:00.196Z,96.90
2019-01-30T05:57:32.265Z,97.30
2019-01-30T06:00:03.388Z,97.30
2019-01-30T06:02:34.576Z,97.00
2019-01-30T06:05:06.190Z,97.20
2019-01-30T06:07:37.048Z,97.40
2019-01-30T06:10:08.369Z,97.30
2019-01-30T06:12:39.219Z,97.50
2019-01-30T06:15:11.325Z,97.60
2019-01-30T06:17:42.218Z,97.30
2019-01-30T06:20:16.109Z,97.50
2019-01-30T06:22:47.351Z,97.00
2019-01-30T06:25:19.173Z,97.20
2019-01-30T06:27:50.654Z,97.60
2019-01-30T06:30:22.108Z,97.50
2019-01-30T06:32:53.048Z,97.40
2019-01-30T06:35:24.588Z,97.60
2019-01-30T06:37:55.648Z,97.80
2019-01-30T06:40:29.281Z,97.90
2019-01-30T06:43:02.435Z,97.60
2019-01-30T06:45:32.716Z,97.80
2019-01-30T06:48:04.116Z,97.80
2019-01-30T06:50:34.936Z,97.50
2019-01-30T06:53:05.735Z,97.20
2019-01-30T06:55:36.444Z,97.30
2019-01-30T06:58:07.371Z,97.40
2019-01-30T07:00:38.115Z,97.20
2019-01-30T07:03:08.954Z,97.60
2019-01-30T07:05:40.082Z,97.50
2019-01-30T07:08:11.006Z,97.50
2019-01-30T07:10:41.793Z,97.30
2019-01-30T07:13:12.524Z,97.50
2019-01-30T07:15:43.353Z,97.60
2019-01-30T07:18:14.463Z,97.50
2019-01-30T07:20:45.741Z,97.60
2019-01-30T07:23:16.492Z,97.20
2019-01-30T07:25:47.312Z,97.10
2019-01-30T07:28:18.210Z,97.00
2019-01-30T07:30:49.097Z,97.10
2019-01-30T07:33:19.892Z,97.00
2019-01-30T07:35:50.616Z,96.90
2019-01-30T07:38:21.399Z,97.00
2019-01-30T07:40:52.576Z,96.80
2019-01-30T07:43:23.442Z,97.00
2019-01-30T07:45:54.267Z,96.60
2019-01-30T07:48:28.579Z,96.70
2019-01-30T07:50:57.653Z,98.40
2019-01-30T07:53:28.408Z,99.90
2019-01-30T07:55:59.220Z,99.90
2019-01-30T07:58:30.104Z,99.90
2019-01-30T08:01:01.514Z,99.90
2019-01-30T08:03:32.269Z,99.90
2019-01-30T08:06:03.009Z,99.90
2019-01-30T08:08:34.158Z,99.90
2019-01-30T08:11:07.253Z,99.90
2019-01-30T08:13:37.794Z,99.90
2019-01-30T08:16:08.548Z,99.90
2019-01-30T08:18:39.614Z,99.90
2019-01-30T08:21:10.597Z,99.90
2019-01-30T08:23:41.523Z,99.90
2019-01-30T08:26:12.307Z,99.90
2019-01-30T08:28:43.363Z,99.90
2019-01-30T08:31:14.752Z,99.90
2019-01-30T08:33:45.609Z,99.90
2019-01-30T08:36:16.571Z,99.90
2019-01-30T08:38:49.145Z,99.90
2019-01-30T08:41:19.971Z,99.90
2019-01-30T08:43:50.875Z,99.90
2019-01-30T08:46:21.724Z,99.90
2019-01-30T08:48:52.526Z,99.90
2019-01-30T08:51:23.395Z,99.90
2019-01-30T08:53:54.125Z,99.90
2019-01-30T08:56:25.041Z,99.90
2019-01-30T08:58:56.056Z,99.90
2019-01-30T09:01:26.986Z,99.90
2019-01-30T09:03:57.838Z,99.90
2019-01-30T09:06:28.714Z,99.90
2019-01-30T09:08:59.553Z,99.90
2019-01-30T09:11:30.483Z,99.90
2019-01-30T09:14:01.246Z,99.90
2019-01-30T09:16:32.067Z,99.90
2019-01-30T09:19:02.814Z,99.90
2019-01-30T09:21:34.973Z,99.90
2019-01-30T09:24:05.966Z,99.90
2019-01-30T09:26:37.336Z,99.90
2019-01-30T09:29:08.250Z,99.90
2019-01-30T09:31:38.987Z,99.90
2019-01-30T09:34:09.794Z,99.90
2019-01-30T09:36:40.658Z,99.90
2019-01-30T09:39:12.839Z,99.90
2019-01-30T09:41:43.641Z,99.90
2019-01-30T09:44:14.371Z,99.90
2019-01-30T09:46:45.206Z,99.90
2019-01-30T09:49:15.933Z,99.90
2019-01-30T09:51:46.854Z,99.90
2019-01-30T09:54:17.686Z,99.90
2019-01-30T09:56:48.771Z,99.90
2019-01-30T09:59:19.655Z,99.90
2019-01-30T10:01:50.536Z,99.90
2019-01-30T10:04:21.581Z,99.90
2019-01-30T10:06:52.416Z,99.90
2019-01-30T10:09:23.164Z,99.90
2019-01-30T10:11:53.959Z,99.90
2019-01-30T10:14:24.803Z,99.90
2019-01-30T10:16:55.875Z,99.90
2019-01-30T10:19:27.035Z,99.90
2019-01-30T10:21:58.064Z,99.90
2019-01-30T10:24:29.863Z,99.90
2019-01-30T10:27:00.629Z,99.90
2019-01-30T10:29:31.407Z,99.90
2019-01-30T10:32:02.504Z,99.90
2019-01-30T10:34:33.491Z,99.90
2019-01-30T10:37:04.513Z,99.90
2019-01-30T10:39:35.374Z,99.90
2019-01-30T10:42:06.532Z,99.90
2019-01-30T10:44:37.426Z,99.90
2019-01-30T10:47:08.689Z,99.90
2019-01-30T10:49:39.538Z,99.90
2019-01-30T10:52:10.688Z,99.90
2019-01-30T10:54:41.436Z,99.90
2019-01-30T10:57:12.361Z,99.90
2019-01-30T10:59:43.099Z,99.90
2019-01-30T11:02:13.948Z,99.90
2019-01-30T11:04:44.680Z,99.90
2019-01-30T11:07:15.438Z,99.90
2019-01-30T11:09:46.273Z,99.90
2019-01-30T11:12:17.026Z,99.90
2019-01-30T11:14:47.768Z,99.90
2019-01-30T11:17:18.526Z,99.90
2019-01-30T11:19:49.342Z,99.90
2019-01-30T11:22:20.147Z,99.90
2019-01-30T11:24:50.988Z,99.90
2019-01-30T11:27:21.791Z,99.90
2019-01-30T11:29:52.520Z,99.90
2019-01-30T11:32:23.358Z,99.90
2019-01-30T11:34:54.650Z,99.90
2019-01-30T11:37:25.364Z,99.90
2019-01-30T11:39:56.215Z,99.90
2019-01-30T11:42:27.118Z,99.90
2019-01-30T11:44:57.972Z,99.90
2019-01-30T11:47:29.054Z,99.90
2019-01-30T11:49:59.853Z,99.90
2019-01-30T11:52:30.643Z,99.90
2019-01-30T11:55:01.668Z,99.90
2019-01-30T11:57:32.905Z,99.90
2019-01-30T12:00:04.759Z,99.90
2019-01-30T12:02:35.559Z,99.90
2019-01-30T12:05:07.806Z,99.90
2019-01-30T12:07:38.690Z,99.90
2019-01-30T12:10:10.267Z,99.90
2019-01-30T12:12:41.240Z,99.90
2019-01-30T12:15:14.903Z,99.90
2019-01-30T12:17:46.291Z,99.90
2019-01-30T12:20:17.375Z,99.90
2019-01-30T12:22:48.495Z,99.90
2019-01-30T12:25:19.875Z,99.90
2019-01-30T12:27:51.152Z,99.90
2019-01-30T12:30:25.259Z,99.90
2019-01-30T12:32:56.306Z,99.90
2019-01-30T12:35:27.659Z,99.90
2019-01-30T12:37:58.638Z,99.90
2019-01-30T12:40:29.727Z,99.90
2019-01-30T12:43:01.169Z,99.90
2019-01-30T12:45:33.550Z,99.90
2019-01-30T12:48:04.950Z,99.90
2019-01-30T12:50:35.937Z,99.90
2019-01-30T12:53:06.879Z,99.90
2019-01-30T12:55:37.923Z,99.90
2019-01-30T12:58:08.924Z,99.90
2019-01-30T13:00:41.352Z,99.90
2019-01-30T13:03:12.102Z,99.90
2019-01-30T13:05:43.207Z,99.90
2019-01-30T13:08:14.007Z,99.90
2019-01-30T13:10:45.088Z,99.90
2019-01-30T13:13:16.154Z,99.90
2019-01-30T13:15:46.887Z,99.90
2019-01-30T13:18:18.793Z,99.90
2019-01-30T13:20:50.080Z,99.90
2019-01-30T13:23:21.247Z,99.90
2019-01-30T13:25:52.111Z,99.90
2019-01-30T13:28:23.022Z,99.90
2019-01-30T13:30:54.862Z,99.90
2019-01-30T13:33:25.914Z,99.90
2019-01-30T13:35:56.807Z,99.90
2019-01-30T13:38:27.520Z,99.90
2019-01-30T13:40:58.243Z,99.90
2019-01-30T13:43:29.438Z,99.90
2019-01-30T13:46:05.540Z,99.90
2019-01-30T13:48:33.814Z,99.90
2019-01-30T13:51:04.714Z,99.90
2019-01-30T13:53:37.229Z,99.90
2019-01-30T13:56:08.280Z,99.90
2019-01-30T13:58:39.079Z,99.90
2019-01-30T14:01:17.273Z,99.90
2019-01-30T14:03:42.805Z,99.90
2019-01-30T14:06:13.717Z,99.90
2019-01-30T14:08:44.888Z,99.90
2019-01-30T14:11:15.794Z,99.90
2019-01-30T14:13:46.646Z,99.90
2019-01-30T14:16:17.392Z,99.90
2019-01-30T14:18:48.258Z,99.90
2019-01-30T14:21:19.357Z,99.90
2019-01-30T14:23:50.262Z,99.90
2019-01-30T14:26:21.369Z,99.90
2019-01-30T14:28:52.324Z,99.90
2019-01-30T14:31:23.140Z,99.90
2019-01-30T14:33:54.769Z,99.90
2019-01-30T14:36:26.251Z,99.90
2019-01-30T14:38:57.075Z,99.90
2019-01-30T14:41:28.270Z,99.90
2019-01-30T14:43:59.035Z,99.90
2019-01-30T14:46:29.858Z,99.90
2019-01-30T14:49:01.573Z,99.90
2019-01-30T14:51:32.528Z,99.90
2019-01-30T14:54:03.317Z,99.90
2019-01-30T14:56:34.045Z,99.90
2019-01-30T14:59:04.991Z,99.90
2019-01-30T15:01:36.089Z,99.90
2019-01-30T15:04:07.308Z,99.90
2019-01-30T15:06:38.108Z,99.90
2019-01-30T15:09:10.376Z,99.90
2019-01-30T15:11:41.475Z,99.90
2019-01-30T15:14:12.314Z,99.90
2019-01-30T15:16:43.456Z,99.90
2019-01-30T15:19:15.236Z,99.90
2019-01-30T15:21:45.959Z,99.90
2019-01-30T15:24:17.783Z,99.90
2019-01-30T15:26:48.535Z,99.90
2019-01-30T15:29:20.320Z,99.90
2019-01-30T15:31:51.035Z,99.90
2019-01-30T15:34:22.068Z,99.90
2019-01-30T15:36:52.818Z,99.90
2019-01-30T15:39:23.555Z,99.90
2019-01-30T15:41:54.520Z,99.90
2019-01-30T15:44:25.424Z,99.90
2019-01-30T15:46:56.175Z,99.90
2019-01-30T15:49:26.984Z,99.90
2019-01-30T15:51:57.821Z,99.90
2019-01-30T15:54:28.921Z,99.90
2019-01-30T15:56:59.638Z,99.90
2019-01-30T15:59:30.408Z,99.90
2019-01-30T16:02:01.806Z,99.90
2019-01-30T16:04:32.623Z,99.90
2019-01-30T16:07:03.433Z,99.90
2019-01-30T16:09:34.176Z,99.90
2019-01-30T16:12:06.183Z,99.90
2019-01-30T16:14:37.019Z,99.90
2019-01-30T16:17:08.083Z,99.90
2019-01-30T16:19:38.810Z,99.90
2019-01-30T16:22:11.014Z,99.90
2019-01-30T16:24:42.083Z,99.90
2019-01-30T16:27:12.855Z,99.90
2019-01-30T16:29:43.658Z,99.90
2019-01-30T16:32:16.186Z,99.90
2019-01-30T16:34:47.231Z,99.90
2019-01-30T16:37:18.158Z,99.90
2019-01-30T16:39:48.875Z,99.90
2019-01-30T16:42:19.639Z,99.90
2019-01-30T16:44:50.359Z,99.90
2019-01-30T16:47:24.271Z,99.90
2019-01-30T16:49:54.996Z,99.90
2019-01-30T16:52:26.143Z,99.90
2019-01-30T16:54:57.303Z,99.90
2019-01-30T16:57:28.589Z,99.90
2019-01-30T16:59:59.720Z,99.90
2019-01-30T17:02:30.835Z,99.90
2019-01-30T17:05:01.780Z,99.90
2019-01-30T17:07:32.796Z,99.90
2019-01-30T17:10:05.407Z,99.90
2019-01-30T17:12:36.290Z,99.90
2019-01-30T17:15:23.779Z,99.90
2019-01-30T17:17:55.487Z,99.90
2019-01-30T17:20:37.276Z,99.90
2019-01-30T17:23:09.335Z,99.90
2019-01-30T17:25:42.059Z,99.90
2019-01-30T17:28:13.379Z,99.90
2019-01-30T17:30:52.427Z,99.90
2019-01-30T17:33:23.747Z,99.90
2019-01-30T17:35:55.703Z,99.90
2019-01-30T17:38:27.234Z,99.90
2019-01-30T17:40:58.548Z,99.90
2019-01-30T17:43:30.166Z,99.90
2019-01-30T17:46:01.285Z,99.90
2019-01-30T17:48:40.467Z,99.90
2019-01-30T17:51:12.379Z,99.90
2019-01-30T17:53:43.291Z,99.90
2019-01-30T17:56:14.107Z,99.90
2019-01-30T17:58:45.581Z,99.90
2019-01-30T18:01:16.334Z,99.90
2019-01-30T18:03:47.399Z,99.90
2019-01-30T18:06:29.286Z,99.90
2019-01-30T18:08:50.931Z,99.90
2019-01-30T18:11:21.999Z,99.90
2019-01-30T18:13:52.782Z,99.90
2019-01-30T18:16:26.762Z,99.90
2019-01-30T18:18:56.543Z,99.90
2019-01-30T18:21:27.520Z,99.90
2019-01-30T18:23:58.619Z,99.90
2019-01-30T18:26:29.459Z,99.90
2019-01-30T18:29:00.804Z,99.90
2019-01-30T18:31:31.511Z,99.90
2019-01-30T18:34:02.331Z,99.90
2019-01-30T18:36:40.706Z,99.90
2019-01-30T18:39:09.402Z,99.90
2019-01-30T18:41:40.112Z,99.90
2019-01-30T18:44:10.942Z,99.90
2019-01-30T18:46:42.211Z,99.90
2019-01-30T18:49:12.951Z,99.90
2019-01-30T18:51:43.660Z,99.90
2019-01-30T18:54:14.727Z,99.90
2019-01-30T18:56:46.575Z,99.90
2019-01-30T18:59:18.967Z,99.90
2019-01-30T19:01:50.063Z,99.90
2019-01-30T19:04:20.905Z,99.90
2019-01-30T19:06:52.693Z,99.90
2019-01-30T19:09:23.909Z,99.90
2019-01-30T19:11:54.679Z,99.90
2019-01-30T19:14:25.664Z,99.90
2019-01-30T19:16:56.671Z,99.90
2019-01-30T19:19:27.815Z,99.90
2019-01-30T19:21:58.713Z,99.90
2019-01-30T19:24:29.815Z,99.90
2019-01-30T19:27:00.851Z,99.90
2019-01-30T19:29:31.631Z,99.90
2019-01-30T19:32:02.339Z,99.90
2019-01-30T19:34:33.111Z,99.90
2019-01-30T19:37:04.181Z,99.90
2019-01-30T19:39:34.987Z,99.90
2019-01-30T19:42:05.884Z,99.90
2019-01-30T19:44:36.761Z,99.90
2019-01-30T19:47:07.587Z,99.90
2019-01-30T19:49:38.368Z,99.90
2019-01-30T19:52:09.237Z,99.90
2019-01-30T19:54:40.351Z,99.90
2019-01-30T19:57:11.252Z,99.90
2019-01-30T19:59:42.063Z,99.90
2019-01-30T20:02:13.051Z,99.90
2019-01-30T20:04:43.920Z,99.90
2019-01-30T20:07:15.101Z,99.90
2019-01-30T20:09:46.260Z,99.90
2019-01-30T20:12:17.400Z,99.90
2019-01-30T20:14:48.156Z,99.90
2019-01-30T20:17:19.422Z,99.90
2019-01-30T20:19:50.543Z,99.90
2019-01-30T20:22:21.443Z,99.90
2019-01-30T20:24:52.613Z,99.90
2019-01-30T20:27:23.385Z,99.90
2019-01-30T20:29:54.508Z,99.90
2019-01-30T20:32:25.291Z,99.90
2019-01-30T20:34:56.109Z,99.90
2019-01-30T20:37:27.090Z,99.90
2019-01-30T20:39:57.947Z,99.90
2019-01-30T20:42:28.733Z,99.90
2019-01-30T20:44:59.521Z,99.90
2019-01-30T20:47:31.283Z,99.90
2019-01-30T20:50:04.673Z,99.90
2019-01-30T20:52:35.439Z,99.90
2019-01-30T20:55:07.160Z,99.90
2019-01-30T20:57:40.743Z,99.90
2019-01-30T21:00:19.761Z,99.90
2019-01-30T21:02:51.127Z,99.90
2019-01-30T21:05:22.406Z,99.90
2019-01-30T21:07:53.266Z,99.90
2019-01-30T21:10:29.599Z,99.90
2019-01-30T21:13:00.407Z,99.90
2019-01-30T21:15:31.587Z,99.90
2019-01-30T21:18:02.450Z,99.90
2019-01-30T21:20:33.335Z,99.90
2019-01-30T21:23:04.928Z,99.90
2019-01-30T21:25:35.781Z,99.90
2019-01-30T21:28:06.577Z,99.90
2019-01-30T21:30:39.079Z,99.90
2019-01-30T21:33:09.895Z,99.90
2019-01-30T21:35:40.730Z,99.90
2019-01-30T21:38:11.640Z,99.90
2019-01-30T21:40:42.443Z,99.90
2019-01-30T21:43:13.275Z,99.90
2019-01-30T21:45:44.063Z,99.90
2019-01-30T21:48:15.104Z,99.90
2019-01-30T21:50:46.557Z,99.90
2019-01-30T21:53:17.671Z,99.90
2019-01-30T21:55:48.431Z,99.90
2019-01-30T21:58:19.159Z,99.90
2019-01-30T22:00:50.003Z,99.90
2019-01-30T22:03:21.152Z,99.90
2019-01-30T22:05:52.340Z,99.90
2019-01-30T22:08:23.132Z,99.90
2019-01-30T22:10:54.949Z,99.90
2019-01-30T22:13:25.736Z,99.90
2019-01-30T22:15:56.890Z,99.90
2019-01-30T22:18:28.314Z,99.90
2019-01-30T22:20:59.198Z,99.90
2019-01-30T22:23:29.956Z,99.90
2019-01-30T22:26:00.715Z,99.90
2019-01-30T22:28:43.184Z,99.90
2019-01-30T22:31:13.936Z,99.90
2019-01-30T22:33:44.648Z,99.90
2019-01-30T22:36:15.488Z,99.90
2019-01-30T22:38:46.327Z,99.90
2019-01-30T22:41:17.520Z,99.90
2019-01-30T22:43:48.261Z,99.90
2019-01-30T22:46:19.109Z,99.90
2019-01-30T22:48:49.843Z,99.90
2019-01-30T22:51:20.783Z,99.90
2019-01-30T22:53:51.911Z,99.90
2019-01-30T22:56:22.783Z,99.90
2019-01-30T22:58:54.090Z,99.90
2019-01-30T23:01:51.568Z,99.90
2019-01-30T23:05:03.265Z,99.90
2019-01-30T23:07:42.600Z,99.90
2019-01-30T23:10:56.926Z,99.90
2019-01-30T23:13:37.488Z,99.90
2019-01-30T23:16:45.388Z,99.90
2019-01-30T23:19:53.615Z,99.90
2019-01-30T23:23:24.057Z,99.90
2019-01-30T23:26:06.307Z,99.90
2019-01-30T23:29:14.363Z,99.90
2019-01-30T23:32:01.740Z,99.90
2019-01-30T23:35:07.415Z,99.90
2019-01-30T23:37:52.827Z,99.90
2019-01-30T23:40:34.239Z,99.90
2019-01-30T23:43:57.672Z,99.90
2019-01-30T23:47:10.199Z,99.90
2019-01-30T23:50:32.719Z,99.90
2019-01-30T23:53:40.109Z,99.90
2019-01-30T23:56:52.287Z,99.90
